sensor_id;sensor_type;location;lat;lon;timestamp;temperature;humidity
15143;DHT22;7672;50.834;6.286;2022-10-19T00:01:20;13.10;99.90
15143;DHT22;7672;50.834;6.286;2022-10-19T00:03:52;13.00;99.90
15143;DHT22;7672;50.834;6.286;2022-10-19T00:06:26;13.00;99.90
15143;DHT22;7672;50.834;6.286;2022-10-19T00:08:56;13.00;99.90
15143;DHT22;7672;50.834;6.286;2022-10-19T00:11:25;12.90;99.90
15143;DHT22;7672;50.834;6.286;2022-10-19T00:13:54;12.90;99.90
15143;DHT22;7672;50.834;6.286;2022-10-19T00:16:23;12.90;99.90
15143;DHT22;7672;50.834;6.286;2022-10-19T00:18:51;12.90;99.90
15143;DHT22;7672;50.834;6.286;2022-10-19T00:21:18;12.90;99.90
15143;DHT22;7672;50.834;6.286;2022-10-19T00:23:45;12.90;99.90
15143;DHT22;7672;50.834;6.286;2022-10-19T00:26:12;12.90;99.90
15143;DHT22;7672;50.834;6.286;2022-10-19T00:28:40;12.90;99.90
15143;DHT22;7672;50.834;6.286;2022-10-19T00:31:11;12.80;99.90
15143;DHT22;7672;50.834;6.286;2022-10-19T00:33:41;12.80;99.90
15143;DHT22;7672;50.834;6.286;2022-10-19T00:36:19;12.80;99.90
15143;DHT22;7672;50.834;6.286;2022-10-19T00:38:52;12.80;99.90
15143;DHT22;7672;50.834;6.286;2022-10-19T00:41:21;12.50;99.90
15143;DHT22;7672;50.834;6.286;2022-10-19T00:46:36;12.70;99.90
15143;DHT22;7672;50.834;6.286;2022-10-19T00:49:10;12.60;99.90
15143;DHT22;7672;50.834;6.286;2022-10-19T00:51:44;12.60;99.90
15143;DHT22;7672;50.834;6.286;2022-10-19T00:54:15;12.50;99.90
15143;DHT22;7672;50.834;6.286;2022-10-19T00:56:45;12.50;99.90
15143;DHT22;7672;50.834;6.286;2022-10-19T00:59:16;12.50;99.90
15143;DHT22;7672;50.834;6.286;2022-10-19T01:01:46;12.40;99.90
15143;DHT22;7672;50.834;6.286;2022-10-19T01:04:14;12.40;99.90
15143;DHT22;7672;50.834;6.286;2022-10-19T01:06:41;12.60;99.90
15143;DHT22;7672;50.834;6.286;2022-10-19T01:09:08;12.40;99.90
15143;DHT22;7672;50.834;6.286;2022-10-19T01:35:52;12.40;99.90
15143;DHT22;7672;50.834;6.286;2022-10-19T01:38:40;12.30;99.90
15143;DHT22;7672;50.834;6.286;2022-10-19T01:44:11;12.30;99.90
15143;DHT22;7672;50.834;6.286;2022-10-19T01:46:46;12.30;99.90
15143;DHT22;7672;50.834;6.286;2022-10-19T01:49:38;12.30;99.90
15143;DHT22;7672;50.834;6.286;2022-10-19T01:52:15;12.30;99.90
15143;DHT22;7672;50.834;6.286;2022-10-19T01:54:48;12.20;99.90
15143;DHT22;7672;50.834;6.286;2022-10-19T01:57:22;12.20;99.90
15143;DHT22;7672;50.834;6.286;2022-10-19T01:59:54;12.10;99.90
15143;DHT22;7672;50.834;6.286;2022-10-19T02:02:24;12.10;99.90
15143;DHT22;7672;50.834;6.286;2022-10-19T02:04:55;12.10;99.90
15143;DHT22;7672;50.834;6.286;2022-10-19T02:07:24;12.10;99.90
15143;DHT22;7672;50.834;6.286;2022-10-19T02:09:51;12.10;99.90
15143;DHT22;7672;50.834;6.286;2022-10-19T02:12:19;12.00;99.90
15143;DHT22;7672;50.834;6.286;2022-10-19T02:14:50;12.00;99.90
15143;DHT22;7672;50.834;6.286;2022-10-19T02:17:24;12.00;99.90
15143;DHT22;7672;50.834;6.286;2022-10-19T02:19:54;12.00;99.90
15143;DHT22;7672;50.834;6.286;2022-10-19T02:22:23;12.00;99.90
15143;DHT22;7672;50.834;6.286;2022-10-19T02:24:50;12.00;99.90
15143;DHT22;7672;50.834;6.286;2022-10-19T02:27:17;12.00;99.90
15143;DHT22;7672;50.834;6.286;2022-10-19T02:29:44;12.00;99.90
15143;DHT22;7672;50.834;6.286;2022-10-19T02:32:11;11.90;99.90
15143;DHT22;7672;50.834;6.286;2022-10-19T02:34:38;11.90;99.90
15143;DHT22;7672;50.834;6.286;2022-10-19T02:37:06;11.90;99.90
15143;DHT22;7672;50.834;6.286;2022-10-19T02:39:33;11.80;99.90
15143;DHT22;7672;50.834;6.286;2022-10-19T02:42:18;11.80;99.90
15143;DHT22;7672;50.834;6.286;2022-10-19T02:47:40;11.80;99.90
15143;DHT22;7672;50.834;6.286;2022-10-19T02:50:10;11.80;99.90
15143;DHT22;7672;50.834;6.286;2022-10-19T02:52:39;11.70;99.90
15143;DHT22;7672;50.834;6.286;2022-10-19T02:55:07;11.70;99.90
15143;DHT22;7672;50.834;6.286;2022-10-19T02:57:35;11.80;99.90
15143;DHT22;7672;50.834;6.286;2022-10-19T03:00:05;11.70;99.90
15143;DHT22;7672;50.834;6.286;2022-10-19T03:02:33;11.80;99.90
15143;DHT22;7672;50.834;6.286;2022-10-19T03:05:00;11.80;99.90
15143;DHT22;7672;50.834;6.286;2022-10-19T03:07:27;11.60;99.90
15143;DHT22;7672;50.834;6.286;2022-10-19T03:09:54;11.80;99.90
15143;DHT22;7672;50.834;6.286;2022-10-19T03:12:21;11.70;99.90
15143;DHT22;7672;50.834;6.286;2022-10-19T03:14:47;11.70;99.90
15143;DHT22;7672;50.834;6.286;2022-10-19T03:17:14;11.80;99.90
15143;DHT22;7672;50.834;6.286;2022-10-19T03:19:41;11.80;99.90
15143;DHT22;7672;50.834;6.286;2022-10-19T03:22:08;11.80;99.90
15143;DHT22;7672;50.834;6.286;2022-10-19T03:24:35;11.80;99.90
15143;DHT22;7672;50.834;6.286;2022-10-19T03:27:01;11.80;99.90
15143;DHT22;7672;50.834;6.286;2022-10-19T03:29:28;11.70;99.90
15143;DHT22;7672;50.834;6.286;2022-10-19T03:31:55;11.80;99.90
15143;DHT22;7672;50.834;6.286;2022-10-19T03:34:22;11.80;99.90
15143;DHT22;7672;50.834;6.286;2022-10-19T03:36:48;11.80;99.90
15143;DHT22;7672;50.834;6.286;2022-10-19T03:39:15;11.80;99.90
15143;DHT22;7672;50.834;6.286;2022-10-19T03:41:43;11.80;99.90
15143;DHT22;7672;50.834;6.286;2022-10-19T03:44:10;11.80;99.90
15143;DHT22;7672;50.834;6.286;2022-10-19T03:46:37;11.80;99.90
15143;DHT22;7672;50.834;6.286;2022-10-19T03:49:05;11.80;99.90
15143;DHT22;7672;50.834;6.286;2022-10-19T03:51:33;11.80;99.90
15143;DHT22;7672;50.834;6.286;2022-10-19T03:54:03;11.70;99.90
15143;DHT22;7672;50.834;6.286;2022-10-19T03:56:32;11.80;99.90
15143;DHT22;7672;50.834;6.286;2022-10-19T03:59:01;11.80;99.90
15143;DHT22;7672;50.834;6.286;2022-10-19T04:01:32;11.80;99.90
15143;DHT22;7672;50.834;6.286;2022-10-19T04:04:04;11.70;99.90
15143;DHT22;7672;50.834;6.286;2022-10-19T04:06:34;11.70;99.90
15143;DHT22;7672;50.834;6.286;2022-10-19T04:09:05;11.70;99.90
15143;DHT22;7672;50.834;6.286;2022-10-19T04:11:34;11.70;99.90
15143;DHT22;7672;50.834;6.286;2022-10-19T04:14:01;11.60;99.90
15143;DHT22;7672;50.834;6.286;2022-10-19T04:16:29;11.60;99.90
15143;DHT22;7672;50.834;6.286;2022-10-19T04:18:57;11.60;99.90
15143;DHT22;7672;50.834;6.286;2022-10-19T04:21:33;11.60;99.90
15143;DHT22;7672;50.834;6.286;2022-10-19T04:24:09;11.60;99.90
15143;DHT22;7672;50.834;6.286;2022-10-19T04:26:41;11.60;99.90
15143;DHT22;7672;50.834;6.286;2022-10-19T04:29:19;11.50;99.90
15143;DHT22;7672;50.834;6.286;2022-10-19T04:31:53;11.50;99.90
15143;DHT22;7672;50.834;6.286;2022-10-19T04:34:20;11.50;99.90
15143;DHT22;7672;50.834;6.286;2022-10-19T04:36:46;11.50;99.90
15143;DHT22;7672;50.834;6.286;2022-10-19T04:39:13;11.50;99.90
15143;DHT22;7672;50.834;6.286;2022-10-19T04:41:40;11.50;99.90
15143;DHT22;7672;50.834;6.286;2022-10-19T04:44:08;11.50;99.90
15143;DHT22;7672;50.834;6.286;2022-10-19T04:46:34;11.50;99.90
15143;DHT22;7672;50.834;6.286;2022-10-19T04:49:02;11.50;99.90
15143;DHT22;7672;50.834;6.286;2022-10-19T04:51:31;11.50;99.90
15143;DHT22;7672;50.834;6.286;2022-10-19T04:53:58;11.50;99.90
15143;DHT22;7672;50.834;6.286;2022-10-19T04:56:26;11.50;99.90
15143;DHT22;7672;50.834;6.286;2022-10-19T04:58:55;11.50;99.90
15143;DHT22;7672;50.834;6.286;2022-10-19T05:01:26;11.40;99.90
15143;DHT22;7672;50.834;6.286;2022-10-19T05:03:56;11.40;99.90
15143;DHT22;7672;50.834;6.286;2022-10-19T05:06:25;11.40;99.90
15143;DHT22;7672;50.834;6.286;2022-10-19T05:08:52;11.30;99.90
15143;DHT22;7672;50.834;6.286;2022-10-19T05:11:20;11.30;99.90
15143;DHT22;7672;50.834;6.286;2022-10-19T05:13:47;11.30;99.90
15143;DHT22;7672;50.834;6.286;2022-10-19T05:16:17;11.30;99.90
15143;DHT22;7672;50.834;6.286;2022-10-19T05:18:47;11.20;99.90
15143;DHT22;7672;50.834;6.286;2022-10-19T05:21:16;11.20;99.90
15143;DHT22;7672;50.834;6.286;2022-10-19T05:23:44;11.20;99.90
15143;DHT22;7672;50.834;6.286;2022-10-19T05:26:13;11.20;99.90
15143;DHT22;7672;50.834;6.286;2022-10-19T05:28:47;11.10;99.90
15143;DHT22;7672;50.834;6.286;2022-10-19T05:31:17;11.10;99.90
15143;DHT22;7672;50.834;6.286;2022-10-19T05:33:45;11.10;99.90
15143;DHT22;7672;50.834;6.286;2022-10-19T05:36:27;11.00;99.90
15143;DHT22;7672;50.834;6.286;2022-10-19T05:38:56;11.40;99.90
15143;DHT22;7672;50.834;6.286;2022-10-19T05:41:24;10.90;99.90
15143;DHT22;7672;50.834;6.286;2022-10-19T05:43:56;10.80;99.90
15143;DHT22;7672;50.834;6.286;2022-10-19T05:46:26;10.70;99.90
15143;DHT22;7672;50.834;6.286;2022-10-19T05:48:58;10.70;99.90
15143;DHT22;7672;50.834;6.286;2022-10-19T05:51:26;10.60;99.90
15143;DHT22;7672;50.834;6.286;2022-10-19T05:53:54;10.50;99.90
15143;DHT22;7672;50.834;6.286;2022-10-19T05:56:24;10.50;99.90
15143;DHT22;7672;50.834;6.286;2022-10-19T05:58:52;10.40;99.90
15143;DHT22;7672;50.834;6.286;2022-10-19T06:01:21;10.40;99.90
15143;DHT22;7672;50.834;6.286;2022-10-19T06:03:52;10.40;99.90
15143;DHT22;7672;50.834;6.286;2022-10-19T06:06:21;10.40;99.90
15143;DHT22;7672;50.834;6.286;2022-10-19T06:08:49;10.40;99.90
15143;DHT22;7672;50.834;6.286;2022-10-19T06:11:22;10.40;99.90
15143;DHT22;7672;50.834;6.286;2022-10-19T06:13:54;10.40;99.90
15143;DHT22;7672;50.834;6.286;2022-10-19T06:16:23;10.40;99.90
15143;DHT22;7672;50.834;6.286;2022-10-19T06:18:52;10.40;99.90
15143;DHT22;7672;50.834;6.286;2022-10-19T06:21:22;10.40;99.90
15143;DHT22;7672;50.834;6.286;2022-10-19T06:23:51;10.40;99.90
15143;DHT22;7672;50.834;6.286;2022-10-19T06:26:19;10.40;99.90
15143;DHT22;7672;50.834;6.286;2022-10-19T06:28:47;10.40;99.90
15143;DHT22;7672;50.834;6.286;2022-10-19T06:31:15;10.40;99.90
15143;DHT22;7672;50.834;6.286;2022-10-19T06:33:44;10.40;99.90
15143;DHT22;7672;50.834;6.286;2022-10-19T06:36:20;10.40;99.90
15143;DHT22;7672;50.834;6.286;2022-10-19T06:38:49;10.40;99.90
15143;DHT22;7672;50.834;6.286;2022-10-19T06:41:16;10.40;99.90
15143;DHT22;7672;50.834;6.286;2022-10-19T06:43:43;10.40;99.90
15143;DHT22;7672;50.834;6.286;2022-10-19T06:46:15;10.40;99.90
15143;DHT22;7672;50.834;6.286;2022-10-19T06:48:50;10.40;99.90
15143;DHT22;7672;50.834;6.286;2022-10-19T06:51:27;10.40;99.90
15143;DHT22;7672;50.834;6.286;2022-10-19T06:53:55;10.40;99.90
15143;DHT22;7672;50.834;6.286;2022-10-19T06:56:24;10.40;99.90
15143;DHT22;7672;50.834;6.286;2022-10-19T06:58:52;10.40;99.90
15143;DHT22;7672;50.834;6.286;2022-10-19T07:01:20;10.40;99.90
15143;DHT22;7672;50.834;6.286;2022-10-19T07:03:50;10.40;99.90
15143;DHT22;7672;50.834;6.286;2022-10-19T07:06:18;10.50;99.90
15143;DHT22;7672;50.834;6.286;2022-10-19T07:08:45;10.50;99.90
15143;DHT22;7672;50.834;6.286;2022-10-19T07:11:17;10.50;99.90
15143;DHT22;7672;50.834;6.286;2022-10-19T07:13:45;10.50;99.90
15143;DHT22;7672;50.834;6.286;2022-10-19T07:16:14;10.50;99.90
15143;DHT22;7672;50.834;6.286;2022-10-19T07:18:48;10.60;99.90
15143;DHT22;7672;50.834;6.286;2022-10-19T07:21:17;10.60;99.90
15143;DHT22;7672;50.834;6.286;2022-10-19T07:23:46;10.60;99.90
15143;DHT22;7672;50.834;6.286;2022-10-19T07:26:19;10.60;99.90
15143;DHT22;7672;50.834;6.286;2022-10-19T07:28:49;10.70;99.90
15143;DHT22;7672;50.834;6.286;2022-10-19T07:31:19;10.80;99.90
15143;DHT22;7672;50.834;6.286;2022-10-19T07:33:57;10.80;99.90
15143;DHT22;7672;50.834;6.286;2022-10-19T07:36:26;10.80;99.90
15143;DHT22;7672;50.834;6.286;2022-10-19T07:38:54;10.80;99.90
15143;DHT22;7672;50.834;6.286;2022-10-19T07:41:24;10.90;99.90
15143;DHT22;7672;50.834;6.286;2022-10-19T07:43:52;10.90;99.90
15143;DHT22;7672;50.834;6.286;2022-10-19T07:46:21;11.00;99.90
15143;DHT22;7672;50.834;6.286;2022-10-19T07:48:54;11.00;99.90
15143;DHT22;7672;50.834;6.286;2022-10-19T07:51:21;11.00;99.90
15143;DHT22;7672;50.834;6.286;2022-10-19T07:53:48;11.00;99.90
15143;DHT22;7672;50.834;6.286;2022-10-19T07:56:18;11.10;99.90
15143;DHT22;7672;50.834;6.286;2022-10-19T07:58:48;11.10;99.90
15143;DHT22;7672;50.834;6.286;2022-10-19T08:01:18;11.10;99.90
15143;DHT22;7672;50.834;6.286;2022-10-19T08:03:47;11.10;99.90
15143;DHT22;7672;50.834;6.286;2022-10-19T08:06:34;11.10;99.90
15143;DHT22;7672;50.834;6.286;2022-10-19T08:09:03;11.10;99.90
15143;DHT22;7672;50.834;6.286;2022-10-19T08:11:33;11.20;99.90
15143;DHT22;7672;50.834;6.286;2022-10-19T08:14:01;11.20;99.90
15143;DHT22;7672;50.834;6.286;2022-10-19T08:16:35;11.20;99.90
15143;DHT22;7672;50.834;6.286;2022-10-19T08:19:08;11.20;99.90
15143;DHT22;7672;50.834;6.286;2022-10-19T08:21:37;11.30;99.90
15143;DHT22;7672;50.834;6.286;2022-10-19T08:24:06;11.30;99.90
15143;DHT22;7672;50.834;6.286;2022-10-19T08:26:34;11.30;99.90
15143;DHT22;7672;50.834;6.286;2022-10-19T08:29:14;11.30;99.90
15143;DHT22;7672;50.834;6.286;2022-10-19T08:31:43;11.40;99.90
15143;DHT22;7672;50.834;6.286;2022-10-19T08:34:14;11.40;99.90
15143;DHT22;7672;50.834;6.286;2022-10-19T08:36:41;11.40;99.90
15143;DHT22;7672;50.834;6.286;2022-10-19T08:39:09;11.40;99.90
15143;DHT22;7672;50.834;6.286;2022-10-19T08:50:16;11.60;99.90
15143;DHT22;7672;50.834;6.286;2022-10-19T08:52:51;11.60;99.90
15143;DHT22;7672;50.834;6.286;2022-10-19T08:55:32;11.60;99.90
15143;DHT22;7672;50.834;6.286;2022-10-19T09:01:24;11.70;99.90
15143;DHT22;7672;50.834;6.286;2022-10-19T09:04:30;11.70;99.90
15143;DHT22;7672;50.834;6.286;2022-10-19T09:09:58;11.80;99.90
15143;DHT22;7672;50.834;6.286;2022-10-19T09:15:37;11.80;99.90
15143;DHT22;7672;50.834;6.286;2022-10-19T09:18:29;11.90;99.90
15143;DHT22;7672;50.834;6.286;2022-10-19T09:21:22;11.90;99.90
15143;DHT22;7672;50.834;6.286;2022-10-19T09:27:23;11.90;99.90
15143;DHT22;7672;50.834;6.286;2022-10-19T09:29:56;12.00;99.90
15143;DHT22;7672;50.834;6.286;2022-10-19T09:32:35;12.10;99.90
15143;DHT22;7672;50.834;6.286;2022-10-19T09:37:53;12.20;99.90
15143;DHT22;7672;50.834;6.286;2022-10-19T09:40:24;12.20;99.90
15143;DHT22;7672;50.834;6.286;2022-10-19T09:42:54;12.30;99.90
15143;DHT22;7672;50.834;6.286;2022-10-19T09:45:35;12.30;99.90
15143;DHT22;7672;50.834;6.286;2022-10-19T09:48:31;12.40;99.90
15143;DHT22;7672;50.834;6.286;2022-10-19T09:51:02;12.40;99.90
15143;DHT22;7672;50.834;6.286;2022-10-19T09:53:37;12.50;99.90
15143;DHT22;7672;50.834;6.286;2022-10-19T09:56:21;12.50;99.90
15143;DHT22;7672;50.834;6.286;2022-10-19T09:58:58;12.50;99.90
15143;DHT22;7672;50.834;6.286;2022-10-19T10:01:37;12.90;99.90
15143;DHT22;7672;50.834;6.286;2022-10-19T10:04:16;12.70;99.90
15143;DHT22;7672;50.834;6.286;2022-10-19T10:06:46;12.70;99.90
15143;DHT22;7672;50.834;6.286;2022-10-19T10:09:21;12.80;99.90
15143;DHT22;7672;50.834;6.286;2022-10-19T10:11:52;12.80;99.90
15143;DHT22;7672;50.834;6.286;2022-10-19T10:14:28;12.90;99.90
15143;DHT22;7672;50.834;6.286;2022-10-19T10:17:18;13.00;99.90
15143;DHT22;7672;50.834;6.286;2022-10-19T10:22:29;13.10;99.90
15143;DHT22;7672;50.834;6.286;2022-10-19T10:25:11;13.20;99.90
15143;DHT22;7672;50.834;6.286;2022-10-19T10:27:54;13.20;99.90
15143;DHT22;7672;50.834;6.286;2022-10-19T10:30:22;13.30;99.90
15143;DHT22;7672;50.834;6.286;2022-10-19T10:32:52;13.40;99.90
15143;DHT22;7672;50.834;6.286;2022-10-19T10:35:40;13.50;99.90
15143;DHT22;7672;50.834;6.286;2022-10-19T10:38:25;13.60;99.90
15143;DHT22;7672;50.834;6.286;2022-10-19T10:40:59;13.70;99.90
15143;DHT22;7672;50.834;6.286;2022-10-19T10:43:35;13.80;99.90
15143;DHT22;7672;50.834;6.286;2022-10-19T10:46:18;13.90;99.90
15143;DHT22;7672;50.834;6.286;2022-10-19T10:48:57;14.00;99.90
15143;DHT22;7672;50.834;6.286;2022-10-19T10:54:27;14.30;99.90
15143;DHT22;7672;50.834;6.286;2022-10-19T10:57:14;14.50;99.90
15143;DHT22;7672;50.834;6.286;2022-10-19T11:02:35;14.70;99.90
15143;DHT22;7672;50.834;6.286;2022-10-19T11:05:20;14.90;99.90
15143;DHT22;7672;50.834;6.286;2022-10-19T11:11:05;15.20;99.90
15143;DHT22;7672;50.834;6.286;2022-10-19T11:13:50;15.30;99.90
15143;DHT22;7672;50.834;6.286;2022-10-19T11:16:26;15.30;99.90
15143;DHT22;7672;50.834;6.286;2022-10-19T11:22:18;15.40;99.90
15143;DHT22;7672;50.834;6.286;2022-10-19T11:25:35;15.40;99.90
15143;DHT22;7672;50.834;6.286;2022-10-19T11:43:02;15.20;99.90
15143;DHT22;7672;50.834;6.286;2022-10-19T11:48:52;15.10;99.90
15143;DHT22;7672;50.834;6.286;2022-10-19T11:51:45;15.10;99.90
15143;DHT22;7672;50.834;6.286;2022-10-19T11:57:42;15.10;99.90
15143;DHT22;7672;50.834;6.286;2022-10-19T12:00:17;15.10;99.90
15143;DHT22;7672;50.834;6.286;2022-10-19T12:03:26;15.10;99.90
15143;DHT22;7672;50.834;6.286;2022-10-19T12:09:32;15.10;99.90
15143;DHT22;7672;50.834;6.286;2022-10-19T12:14:50;15.20;99.90
15143;DHT22;7672;50.834;6.286;2022-10-19T12:17:28;15.20;99.90
15143;DHT22;7672;50.834;6.286;2022-10-19T12:20:02;15.30;99.90
15143;DHT22;7672;50.834;6.286;2022-10-19T12:22:35;15.40;99.90
15143;DHT22;7672;50.834;6.286;2022-10-19T12:25:03;15.40;99.90
15143;DHT22;7672;50.834;6.286;2022-10-19T12:27:36;15.50;99.90
15143;DHT22;7672;50.834;6.286;2022-10-19T12:33:23;15.70;99.90
15143;DHT22;7672;50.834;6.286;2022-10-19T12:38:54;15.90;99.90
15143;DHT22;7672;50.834;6.286;2022-10-19T12:47:26;16.10;99.90
15143;DHT22;7672;50.834;6.286;2022-10-19T12:49:56;16.10;99.90
15143;DHT22;7672;50.834;6.286;2022-10-19T12:52:46;16.10;99.90
15143;DHT22;7672;50.834;6.286;2022-10-19T12:57:46;16.30;99.90
15143;DHT22;7672;50.834;6.286;2022-10-19T13:00:23;16.30;99.90
15143;DHT22;7672;50.834;6.286;2022-10-19T13:03:04;16.40;99.90
15143;DHT22;7672;50.834;6.286;2022-10-19T13:05:39;16.40;99.90
15143;DHT22;7672;50.834;6.286;2022-10-19T13:08:07;16.50;99.90
15143;DHT22;7672;50.834;6.286;2022-10-19T13:10:40;16.50;99.90
15143;DHT22;7672;50.834;6.286;2022-10-19T13:21:50;16.70;99.90
15143;DHT22;7672;50.834;6.286;2022-10-19T13:32:29;16.70;99.90
15143;DHT22;7672;50.834;6.286;2022-10-19T13:55:38;17.10;99.90
15143;DHT22;7672;50.834;6.286;2022-10-19T13:58:37;17.10;99.90
15143;DHT22;7672;50.834;6.286;2022-10-19T14:04:44;17.20;99.90
15143;DHT22;7672;50.834;6.286;2022-10-19T14:11:02;17.30;99.90
15143;DHT22;7672;50.834;6.286;2022-10-19T14:13:32;17.30;99.90
15143;DHT22;7672;50.834;6.286;2022-10-19T14:16:00;17.30;99.90
15143;DHT22;7672;50.834;6.286;2022-10-19T14:18:33;17.30;99.90
15143;DHT22;7672;50.834;6.286;2022-10-19T14:21:06;17.40;99.90
15143;DHT22;7672;50.834;6.286;2022-10-19T14:23:37;17.30;99.90
15143;DHT22;7672;50.834;6.286;2022-10-19T14:26:19;17.40;99.90
15143;DHT22;7672;50.834;6.286;2022-10-19T14:28:53;17.40;99.90
15143;DHT22;7672;50.834;6.286;2022-10-19T14:31:24;17.50;99.90
15143;DHT22;7672;50.834;6.286;2022-10-19T14:34:00;17.50;99.90
15143;DHT22;7672;50.834;6.286;2022-10-19T14:36:42;17.50;99.90
15143;DHT22;7672;50.834;6.286;2022-10-19T14:39:32;17.70;99.90
15143;DHT22;7672;50.834;6.286;2022-10-19T14:42:04;17.60;99.90
15143;DHT22;7672;50.834;6.286;2022-10-19T14:44:36;17.60;99.90
15143;DHT22;7672;50.834;6.286;2022-10-19T14:47:18;17.60;99.90
15143;DHT22;7672;50.834;6.286;2022-10-19T14:49:49;17.60;99.90
15143;DHT22;7672;50.834;6.286;2022-10-19T14:52:24;17.70;99.90
15143;DHT22;7672;50.834;6.286;2022-10-19T14:54:55;17.70;99.90
15143;DHT22;7672;50.834;6.286;2022-10-19T14:57:29;17.70;99.90
15143;DHT22;7672;50.834;6.286;2022-10-19T15:00:05;17.70;99.90
15143;DHT22;7672;50.834;6.286;2022-10-19T15:02:46;17.70;99.90
15143;DHT22;7672;50.834;6.286;2022-10-19T15:05:23;17.70;99.90
15143;DHT22;7672;50.834;6.286;2022-10-19T15:07:54;17.60;99.90
15143;DHT22;7672;50.834;6.286;2022-10-19T15:10:27;17.60;99.90
15143;DHT22;7672;50.834;6.286;2022-10-19T15:13:05;17.60;99.90
15143;DHT22;7672;50.834;6.286;2022-10-19T15:15:34;17.60;99.90
15143;DHT22;7672;50.834;6.286;2022-10-19T15:18:03;17.50;99.90
15143;DHT22;7672;50.834;6.286;2022-10-19T15:20:39;17.50;99.90
15143;DHT22;7672;50.834;6.286;2022-10-19T15:23:40;17.50;99.90
15143;DHT22;7672;50.834;6.286;2022-10-19T15:26:28;17.40;99.90
15143;DHT22;7672;50.834;6.286;2022-10-19T15:29:09;17.40;99.90
15143;DHT22;7672;50.834;6.286;2022-10-19T15:31:47;17.30;99.90
15143;DHT22;7672;50.834;6.286;2022-10-19T15:34:27;17.30;99.90
15143;DHT22;7672;50.834;6.286;2022-10-19T15:36:57;17.30;99.90
15143;DHT22;7672;50.834;6.286;2022-10-19T15:39:32;17.20;99.90
15143;DHT22;7672;50.834;6.286;2022-10-19T15:42:41;17.20;99.90
15143;DHT22;7672;50.834;6.286;2022-10-19T15:45:36;17.20;99.90
15143;DHT22;7672;50.834;6.286;2022-10-19T15:50:41;17.20;99.90
15143;DHT22;7672;50.834;6.286;2022-10-19T15:53:09;17.10;99.90
15143;DHT22;7672;50.834;6.286;2022-10-19T15:55:36;17.10;99.90
15143;DHT22;7672;50.834;6.286;2022-10-19T15:58:02;17.00;99.90
15143;DHT22;7672;50.834;6.286;2022-10-19T16:00:30;17.00;99.90
15143;DHT22;7672;50.834;6.286;2022-10-19T16:02:57;16.90;99.90
15143;DHT22;7672;50.834;6.286;2022-10-19T16:05:24;16.90;99.90
15143;DHT22;7672;50.834;6.286;2022-10-19T16:07:51;16.90;99.90
15143;DHT22;7672;50.834;6.286;2022-10-19T16:10:21;16.80;99.90
15143;DHT22;7672;50.834;6.286;2022-10-19T16:12:50;16.80;99.90
15143;DHT22;7672;50.834;6.286;2022-10-19T16:15:20;16.70;99.90
15143;DHT22;7672;50.834;6.286;2022-10-19T16:17:51;16.70;99.90
15143;DHT22;7672;50.834;6.286;2022-10-19T16:20:20;16.70;99.90
15143;DHT22;7672;50.834;6.286;2022-10-19T16:22:47;16.60;99.90
15143;DHT22;7672;50.834;6.286;2022-10-19T16:25:15;16.60;99.90
15143;DHT22;7672;50.834;6.286;2022-10-19T16:27:42;16.50;99.90
15143;DHT22;7672;50.834;6.286;2022-10-19T16:30:09;16.50;99.90
15143;DHT22;7672;50.834;6.286;2022-10-19T16:32:36;16.50;99.90
15143;DHT22;7672;50.834;6.286;2022-10-19T16:35:06;16.50;99.90
15143;DHT22;7672;50.834;6.286;2022-10-19T16:37:37;16.40;99.90
15143;DHT22;7672;50.834;6.286;2022-10-19T16:40:04;16.40;99.90
15143;DHT22;7672;50.834;6.286;2022-10-19T16:42:31;16.40;99.90
15143;DHT22;7672;50.834;6.286;2022-10-19T16:45:00;16.40;99.90
15143;DHT22;7672;50.834;6.286;2022-10-19T16:47:27;16.30;99.90
15143;DHT22;7672;50.834;6.286;2022-10-19T16:50:01;16.30;99.90
15143;DHT22;7672;50.834;6.286;2022-10-19T16:52:30;16.30;99.90
15143;DHT22;7672;50.834;6.286;2022-10-19T16:54:59;16.20;99.90
15143;DHT22;7672;50.834;6.286;2022-10-19T16:57:26;16.20;99.90
15143;DHT22;7672;50.834;6.286;2022-10-19T16:59:53;16.20;99.90
15143;DHT22;7672;50.834;6.286;2022-10-19T17:02:20;16.10;99.90
15143;DHT22;7672;50.834;6.286;2022-10-19T17:04:47;16.00;99.90
15143;DHT22;7672;50.834;6.286;2022-10-19T17:07:15;16.10;99.90
15143;DHT22;7672;50.834;6.286;2022-10-19T17:09:42;16.00;99.90
15143;DHT22;7672;50.834;6.286;2022-10-19T17:12:09;16.00;99.90
15143;DHT22;7672;50.834;6.286;2022-10-19T17:14:38;15.90;99.90
15143;DHT22;7672;50.834;6.286;2022-10-19T17:17:07;15.90;99.90
15143;DHT22;7672;50.834;6.286;2022-10-19T17:19:36;15.80;99.90
15143;DHT22;7672;50.834;6.286;2022-10-19T17:22:03;15.80;99.90
15143;DHT22;7672;50.834;6.286;2022-10-19T17:24:31;15.80;99.90
15143;DHT22;7672;50.834;6.286;2022-10-19T17:27:00;15.80;99.90
15143;DHT22;7672;50.834;6.286;2022-10-19T17:29:30;15.70;99.90
15143;DHT22;7672;50.834;6.286;2022-10-19T17:31:58;15.70;99.90
15143;DHT22;7672;50.834;6.286;2022-10-19T17:34:25;15.70;99.90
15143;DHT22;7672;50.834;6.286;2022-10-19T17:36:52;15.70;99.90
15143;DHT22;7672;50.834;6.286;2022-10-19T17:39:21;15.70;99.90
15143;DHT22;7672;50.834;6.286;2022-10-19T17:41:55;15.60;99.90
15143;DHT22;7672;50.834;6.286;2022-10-19T17:44:27;15.60;99.90
15143;DHT22;7672;50.834;6.286;2022-10-19T17:46:55;15.60;99.90
15143;DHT22;7672;50.834;6.286;2022-10-19T17:49:22;15.60;99.90
15143;DHT22;7672;50.834;6.286;2022-10-19T17:51:51;15.50;99.90
15143;DHT22;7672;50.834;6.286;2022-10-19T17:54:19;15.50;99.90
15143;DHT22;7672;50.834;6.286;2022-10-19T17:56:46;15.50;99.90
15143;DHT22;7672;50.834;6.286;2022-10-19T17:59:12;15.50;99.90
15143;DHT22;7672;50.834;6.286;2022-10-19T18:01:39;15.40;99.90
15143;DHT22;7672;50.834;6.286;2022-10-19T18:04:07;15.30;99.90
15143;DHT22;7672;50.834;6.286;2022-10-19T18:06:35;15.40;99.90
15143;DHT22;7672;50.834;6.286;2022-10-19T18:09:06;15.30;99.90
15143;DHT22;7672;50.834;6.286;2022-10-19T18:11:40;15.30;99.90
15143;DHT22;7672;50.834;6.286;2022-10-19T18:14:10;15.30;99.90
15143;DHT22;7672;50.834;6.286;2022-10-19T18:16:40;15.20;99.90
15143;DHT22;7672;50.834;6.286;2022-10-19T18:19:12;15.20;99.90
15143;DHT22;7672;50.834;6.286;2022-10-19T18:21:42;15.20;99.90
15143;DHT22;7672;50.834;6.286;2022-10-19T18:24:13;15.20;99.90
15143;DHT22;7672;50.834;6.286;2022-10-19T18:26:45;15.10;99.90
15143;DHT22;7672;50.834;6.286;2022-10-19T18:29:16;15.10;99.90
15143;DHT22;7672;50.834;6.286;2022-10-19T18:31:48;15.00;99.90
15143;DHT22;7672;50.834;6.286;2022-10-19T18:34:21;15.20;99.90
15143;DHT22;7672;50.834;6.286;2022-10-19T18:36:50;14.90;99.90
15143;DHT22;7672;50.834;6.286;2022-10-19T18:39:17;14.90;99.90
15143;DHT22;7672;50.834;6.286;2022-10-19T18:41:44;14.90;99.90
15143;DHT22;7672;50.834;6.286;2022-10-19T18:44:12;14.80;99.90
15143;DHT22;7672;50.834;6.286;2022-10-19T18:46:39;14.80;99.90
15143;DHT22;7672;50.834;6.286;2022-10-19T18:49:07;14.80;99.90
15143;DHT22;7672;50.834;6.286;2022-10-19T18:51:35;14.80;99.90
15143;DHT22;7672;50.834;6.286;2022-10-19T18:54:03;14.70;99.90
15143;DHT22;7672;50.834;6.286;2022-10-19T18:56:30;14.70;99.90